Terminal Aerodrome Forecast
Issued by NWS

Home | Current Version | Previous Version | Text Only | Print | Product List | Glossary Off
Versions: 1 2 3 4 5 6 7 8 9 10 11 12 13 14 15 16

000
FTUS43 KICT 201700
TAFCNU
TAF
KCNU 201720Z 2018/2118 02007KT P6SM SKC
     FM202000 04011KT P6SM SKC
     FM210000 03005KT P6SM SKC
     FM211200 09005KT P6SM SKC=

USA.gov is the U.S. government's official web portal to all federal, state and local government web resources and services.